Arrey, New Mexico
Current Conditions -  °F | °C
As of 1:53 AM on Thursday 27 Nov 2014 (Local Time) from KTCS Reporting Station
Clear Clear  
Wind Chill: 37°   Ceiling: Unl
Heat Index: 40°   Visibility: 10mi
Dew Point: 20°   Wind: 5mph
Humidity: 45%   Direction: 290°WNW
Pressure: 30.39"   Gusts: NA
Location:  32.79°N, 107.32°W
Report Text: KTCS 270853Z AUTO 29004KT 10SM CLR 04/M07 A3039 RMK AO2 SLP256 T00441067 53006 TSNO
Loading
Personal Weather Stations






























Interactive Weather Map New forecast layout! Learn more

10-Day Weather Forecast

Advertisements
Track Severe Weather on mobile